sensor_id;sensor_type;location;lat;lon;timestamp;temperature;humidity
4308;DHT22;2167;53.448;9.984;2022-07-06T00:00:33;15.70;30.00
4308;DHT22;2167;53.448;9.984;2022-07-06T00:02:59;15.60;29.90
4308;DHT22;2167;53.448;9.984;2022-07-06T00:05:25;15.70;29.90
4308;DHT22;2167;53.448;9.984;2022-07-06T00:07:50;15.70;30.00
4308;DHT22;2167;53.448;9.984;2022-07-06T00:10:16;15.70;29.30
4308;DHT22;2167;53.448;9.984;2022-07-06T00:12:42;15.60;29.30
4308;DHT22;2167;53.448;9.984;2022-07-06T00:15:08;15.60;29.50
4308;DHT22;2167;53.448;9.984;2022-07-06T00:17:33;15.60;29.30
4308;DHT22;2167;53.448;9.984;2022-07-06T00:19:59;15.70;30.20
4308;DHT22;2167;53.448;9.984;2022-07-06T00:22:25;15.60;30.00
4308;DHT22;2167;53.448;9.984;2022-07-06T00:24:50;15.60;30.00
4308;DHT22;2167;53.448;9.984;2022-07-06T00:27:17;15.60;30.20
4308;DHT22;2167;53.448;9.984;2022-07-06T00:29:42;15.60;30.40
4308;DHT22;2167;53.448;9.984;2022-07-06T00:32:10;15.60;30.40
4308;DHT22;2167;53.448;9.984;2022-07-06T00:34:36;15.60;30.60
4308;DHT22;2167;53.448;9.984;2022-07-06T00:37:06;15.60;30.90
4308;DHT22;2167;53.448;9.984;2022-07-06T00:39:33;15.60;31.00
4308;DHT22;2167;53.448;9.984;2022-07-06T00:41:58;15.70;30.70
4308;DHT22;2167;53.448;9.984;2022-07-06T00:44:24;15.70;30.80
4308;DHT22;2167;53.448;9.984;2022-07-06T00:46:50;15.70;29.90
4308;DHT22;2167;53.448;9.984;2022-07-06T00:49:16;15.70;29.80
4308;DHT22;2167;53.448;9.984;2022-07-06T00:52:00;15.70;30.60
4308;DHT22;2167;53.448;9.984;2022-07-06T00:54:27;15.70;29.60
4308;DHT22;2167;53.448;9.984;2022-07-06T00:56:55;15.60;29.70
4308;DHT22;2167;53.448;9.984;2022-07-06T00:59:21;15.60;30.60
4308;DHT22;2167;53.448;9.984;2022-07-06T01:01:47;15.60;30.20
4308;DHT22;2167;53.448;9.984;2022-07-06T01:04:13;15.60;31.30
4308;DHT22;2167;53.448;9.984;2022-07-06T01:06:39;15.60;30.80
4308;DHT22;2167;53.448;9.984;2022-07-06T01:09:05;15.60;30.00
4308;DHT22;2167;53.448;9.984;2022-07-06T01:11:30;15.60;30.70
4308;DHT22;2167;53.448;9.984;2022-07-06T01:13:56;15.60;30.70
4308;DHT22;2167;53.448;9.984;2022-07-06T01:16:22;15.60;31.20
4308;DHT22;2167;53.448;9.984;2022-07-06T01:18:48;15.60;32.00
4308;DHT22;2167;53.448;9.984;2022-07-06T01:21:14;15.60;32.00
4308;DHT22;2167;53.448;9.984;2022-07-06T01:23:44;15.60;30.30
4308;DHT22;2167;53.448;9.984;2022-07-06T01:26:19;15.60;30.60
4308;DHT22;2167;53.448;9.984;2022-07-06T01:28:46;15.60;31.30
4308;DHT22;2167;53.448;9.984;2022-07-06T01:31:25;15.60;30.20
4308;DHT22;2167;53.448;9.984;2022-07-06T01:33:52;15.70;30.00
4308;DHT22;2167;53.448;9.984;2022-07-06T01:36:19;15.70;30.00
4308;DHT22;2167;53.448;9.984;2022-07-06T01:38:55;15.70;29.60
4308;DHT22;2167;53.448;9.984;2022-07-06T01:41:23;15.70;29.70
4308;DHT22;2167;53.448;9.984;2022-07-06T01:43:49;15.60;30.00
4308;DHT22;2167;53.448;9.984;2022-07-06T01:46:15;15.60;30.00
4308;DHT22;2167;53.448;9.984;2022-07-06T01:48:41;15.70;30.30
4308;DHT22;2167;53.448;9.984;2022-07-06T01:51:07;15.70;30.40
4308;DHT22;2167;53.448;9.984;2022-07-06T01:53:33;15.70;30.50
4308;DHT22;2167;53.448;9.984;2022-07-06T01:55:59;15.70;30.30
4308;DHT22;2167;53.448;9.984;2022-07-06T01:58:25;15.60;30.00
4308;DHT22;2167;53.448;9.984;2022-07-06T02:00:50;15.60;30.30
4308;DHT22;2167;53.448;9.984;2022-07-06T02:03:16;15.60;31.00
4308;DHT22;2167;53.448;9.984;2022-07-06T02:05:42;15.60;31.10
4308;DHT22;2167;53.448;9.984;2022-07-06T02:08:07;15.60;31.20
4308;DHT22;2167;53.448;9.984;2022-07-06T02:10:33;15.50;32.20
4308;DHT22;2167;53.448;9.984;2022-07-06T02:12:59;15.50;32.90
4308;DHT22;2167;53.448;9.984;2022-07-06T02:15:24;15.50;32.70
4308;DHT22;2167;53.448;9.984;2022-07-06T02:17:50;15.50;32.20
4308;DHT22;2167;53.448;9.984;2022-07-06T02:20:15;15.50;32.30
4308;DHT22;2167;53.448;9.984;2022-07-06T02:22:41;15.40;32.60
4308;DHT22;2167;53.448;9.984;2022-07-06T02:25:07;15.40;32.90
4308;DHT22;2167;53.448;9.984;2022-07-06T02:27:33;15.40;33.60
4308;DHT22;2167;53.448;9.984;2022-07-06T02:29:58;15.40;33.80
4308;DHT22;2167;53.448;9.984;2022-07-06T02:32:24;15.50;34.50
4308;DHT22;2167;53.448;9.984;2022-07-06T02:34:49;15.40;34.10
4308;DHT22;2167;53.448;9.984;2022-07-06T02:37:15;15.50;33.70
4308;DHT22;2167;53.448;9.984;2022-07-06T02:39:40;15.40;33.90
4308;DHT22;2167;53.448;9.984;2022-07-06T02:42:06;15.50;34.10
4308;DHT22;2167;53.448;9.984;2022-07-06T02:44:32;15.50;35.10
4308;DHT22;2167;53.448;9.984;2022-07-06T02:46:57;15.50;34.70
4308;DHT22;2167;53.448;9.984;2022-07-06T02:49:23;15.50;34.80
4308;DHT22;2167;53.448;9.984;2022-07-06T02:51:49;15.50;35.10
4308;DHT22;2167;53.448;9.984;2022-07-06T02:54:14;15.40;34.80
4308;DHT22;2167;53.448;9.984;2022-07-06T02:56:40;15.40;34.80
4308;DHT22;2167;53.448;9.984;2022-07-06T02:59:05;15.40;35.20
4308;DHT22;2167;53.448;9.984;2022-07-06T03:01:31;15.50;35.30
4308;DHT22;2167;53.448;9.984;2022-07-06T03:03:56;15.50;35.20
4308;DHT22;2167;53.448;9.984;2022-07-06T03:06:22;15.50;34.70
4308;DHT22;2167;53.448;9.984;2022-07-06T03:08:47;15.40;34.90
4308;DHT22;2167;53.448;9.984;2022-07-06T03:11:13;15.50;34.80
4308;DHT22;2167;53.448;9.984;2022-07-06T03:13:39;15.40;34.40
4308;DHT22;2167;53.448;9.984;2022-07-06T03:16:04;15.50;33.70
4308;DHT22;2167;53.448;9.984;2022-07-06T03:18:30;15.40;34.10
4308;DHT22;2167;53.448;9.984;2022-07-06T03:20:55;15.40;34.60
4308;DHT22;2167;53.448;9.984;2022-07-06T03:23:21;15.50;35.00
4308;DHT22;2167;53.448;9.984;2022-07-06T03:25:47;15.50;35.00
4308;DHT22;2167;53.448;9.984;2022-07-06T03:28:12;15.50;34.10
4308;DHT22;2167;53.448;9.984;2022-07-06T03:30:38;15.50;33.90
4308;DHT22;2167;53.448;9.984;2022-07-06T03:33:04;15.50;34.50
4308;DHT22;2167;53.448;9.984;2022-07-06T03:35:29;15.60;33.40
4308;DHT22;2167;53.448;9.984;2022-07-06T03:37:55;15.60;33.10
4308;DHT22;2167;53.448;9.984;2022-07-06T03:40:20;15.60;32.40
4308;DHT22;2167;53.448;9.984;2022-07-06T03:42:46;15.60;32.60
4308;DHT22;2167;53.448;9.984;2022-07-06T03:45:12;15.70;32.10
4308;DHT22;2167;53.448;9.984;2022-07-06T03:47:37;15.70;32.30
4308;DHT22;2167;53.448;9.984;2022-07-06T03:50:03;15.70;32.30
4308;DHT22;2167;53.448;9.984;2022-07-06T03:52:29;15.80;32.00
4308;DHT22;2167;53.448;9.984;2022-07-06T03:54:55;15.80;32.50
4308;DHT22;2167;53.448;9.984;2022-07-06T03:57:21;15.80;31.90
4308;DHT22;2167;53.448;9.984;2022-07-06T03:59:47;15.80;31.90
4308;DHT22;2167;53.448;9.984;2022-07-06T04:02:13;15.80;30.50
4308;DHT22;2167;53.448;9.984;2022-07-06T04:04:38;15.80;30.30
4308;DHT22;2167;53.448;9.984;2022-07-06T04:07:04;15.80;29.70
4308;DHT22;2167;53.448;9.984;2022-07-06T04:09:30;15.70;30.60
4308;DHT22;2167;53.448;9.984;2022-07-06T04:11:56;15.80;30.00
4308;DHT22;2167;53.448;9.984;2022-07-06T04:14:21;15.80;30.30
4308;DHT22;2167;53.448;9.984;2022-07-06T04:16:47;15.70;30.30
4308;DHT22;2167;53.448;9.984;2022-07-06T04:19:12;15.70;29.90
4308;DHT22;2167;53.448;9.984;2022-07-06T04:21:38;15.60;30.40
4308;DHT22;2167;53.448;9.984;2022-07-06T04:24:04;15.60;32.40
4308;DHT22;2167;53.448;9.984;2022-07-06T04:26:30;15.60;32.30
4308;DHT22;2167;53.448;9.984;2022-07-06T04:28:55;15.60;32.60
4308;DHT22;2167;53.448;9.984;2022-07-06T04:31:21;15.60;34.50
4308;DHT22;2167;53.448;9.984;2022-07-06T04:33:47;15.60;36.60
4308;DHT22;2167;53.448;9.984;2022-07-06T04:36:13;15.50;38.30
4308;DHT22;2167;53.448;9.984;2022-07-06T04:38:38;15.50;38.80
4308;DHT22;2167;53.448;9.984;2022-07-06T04:41:04;15.50;39.70
4308;DHT22;2167;53.448;9.984;2022-07-06T04:43:29;15.50;41.50
4308;DHT22;2167;53.448;9.984;2022-07-06T04:45:55;15.40;41.00
4308;DHT22;2167;53.448;9.984;2022-07-06T04:48:21;15.40;40.80
4308;DHT22;2167;53.448;9.984;2022-07-06T04:50:47;15.40;41.10
4308;DHT22;2167;53.448;9.984;2022-07-06T04:53:12;15.40;41.60
4308;DHT22;2167;53.448;9.984;2022-07-06T04:55:38;15.40;42.00
4308;DHT22;2167;53.448;9.984;2022-07-06T04:58:03;15.40;41.90
4308;DHT22;2167;53.448;9.984;2022-07-06T05:00:29;15.40;41.30
4308;DHT22;2167;53.448;9.984;2022-07-06T05:02:55;15.40;41.20
4308;DHT22;2167;53.448;9.984;2022-07-06T05:05:20;15.40;41.80
4308;DHT22;2167;53.448;9.984;2022-07-06T05:07:46;15.40;41.00
4308;DHT22;2167;53.448;9.984;2022-07-06T05:10:12;15.40;40.30
4308;DHT22;2167;53.448;9.984;2022-07-06T05:12:38;15.40;40.00
4308;DHT22;2167;53.448;9.984;2022-07-06T05:15:05;15.30;38.80
4308;DHT22;2167;53.448;9.984;2022-07-06T05:17:30;15.30;39.20
4308;DHT22;2167;53.448;9.984;2022-07-06T05:19:56;15.40;38.90
4308;DHT22;2167;53.448;9.984;2022-07-06T05:22:22;15.40;40.10
4308;DHT22;2167;53.448;9.984;2022-07-06T05:24:47;15.40;40.40
4308;DHT22;2167;53.448;9.984;2022-07-06T05:27:13;15.40;39.30
4308;DHT22;2167;53.448;9.984;2022-07-06T05:29:38;15.30;38.40
4308;DHT22;2167;53.448;9.984;2022-07-06T05:32:04;15.30;38.10
4308;DHT22;2167;53.448;9.984;2022-07-06T05:34:30;15.30;38.40
4308;DHT22;2167;53.448;9.984;2022-07-06T05:36:55;15.40;38.60
4308;DHT22;2167;53.448;9.984;2022-07-06T05:39:21;15.40;37.40
4308;DHT22;2167;53.448;9.984;2022-07-06T05:41:48;15.30;37.50
4308;DHT22;2167;53.448;9.984;2022-07-06T05:44:14;15.40;37.40
4308;DHT22;2167;53.448;9.984;2022-07-06T05:46:39;15.40;38.70
4308;DHT22;2167;53.448;9.984;2022-07-06T05:49:05;15.50;38.50
4308;DHT22;2167;53.448;9.984;2022-07-06T05:51:49;15.50;37.20
4308;DHT22;2167;53.448;9.984;2022-07-06T05:54:15;15.60;37.20
4308;DHT22;2167;53.448;9.984;2022-07-06T05:56:41;15.70;35.20
4308;DHT22;2167;53.448;9.984;2022-07-06T05:59:07;15.70;33.60
4308;DHT22;2167;53.448;9.984;2022-07-06T06:01:32;15.70;31.30
4308;DHT22;2167;53.448;9.984;2022-07-06T06:03:58;15.70;31.30
4308;DHT22;2167;53.448;9.984;2022-07-06T06:06:25;15.80;33.40
4308;DHT22;2167;53.448;9.984;2022-07-06T06:08:51;15.90;34.00
4308;DHT22;2167;53.448;9.984;2022-07-06T06:11:17;16.00;31.90
4308;DHT22;2167;53.448;9.984;2022-07-06T06:13:42;16.20;31.10
4308;DHT22;2167;53.448;9.984;2022-07-06T06:16:08;16.30;28.40
4308;DHT22;2167;53.448;9.984;2022-07-06T06:18:33;16.30;25.70
4308;DHT22;2167;53.448;9.984;2022-07-06T06:20:59;16.40;26.00
4308;DHT22;2167;53.448;9.984;2022-07-06T06:23:25;16.40;25.70
4308;DHT22;2167;53.448;9.984;2022-07-06T06:25:51;16.50;29.30
4308;DHT22;2167;53.448;9.984;2022-07-06T06:28:16;16.50;29.90
4308;DHT22;2167;53.448;9.984;2022-07-06T06:30:42;16.50;31.50
4308;DHT22;2167;53.448;9.984;2022-07-06T06:33:13;16.40;27.70
4308;DHT22;2167;53.448;9.984;2022-07-06T06:35:51;16.40;27.30
4308;DHT22;2167;53.448;9.984;2022-07-06T06:38:19;16.40;27.80
4308;DHT22;2167;53.448;9.984;2022-07-06T06:40:45;16.40;27.50
4308;DHT22;2167;53.448;9.984;2022-07-06T06:43:11;16.40;27.60
4308;DHT22;2167;53.448;9.984;2022-07-06T06:45:37;16.50;29.40
4308;DHT22;2167;53.448;9.984;2022-07-06T06:48:03;16.50;28.50
4308;DHT22;2167;53.448;9.984;2022-07-06T06:50:28;16.60;27.50
4308;DHT22;2167;53.448;9.984;2022-07-06T06:52:54;16.60;25.80
4308;DHT22;2167;53.448;9.984;2022-07-06T06:55:19;16.70;24.80
4308;DHT22;2167;53.448;9.984;2022-07-06T06:57:45;16.70;25.20
4308;DHT22;2167;53.448;9.984;2022-07-06T07:00:11;16.70;24.30
4308;DHT22;2167;53.448;9.984;2022-07-06T07:02:40;16.90;25.60
4308;DHT22;2167;53.448;9.984;2022-07-06T07:05:06;16.90;21.20
4308;DHT22;2167;53.448;9.984;2022-07-06T07:07:32;17.00;20.40
4308;DHT22;2167;53.448;9.984;2022-07-06T07:09:58;17.20;21.10
4308;DHT22;2167;53.448;9.984;2022-07-06T07:12:24;17.30;22.10
4308;DHT22;2167;53.448;9.984;2022-07-06T07:14:50;17.60;19.50
4308;DHT22;2167;53.448;9.984;2022-07-06T07:17:15;17.60;18.50
4308;DHT22;2167;53.448;9.984;2022-07-06T07:19:41;17.70;18.80
4308;DHT22;2167;53.448;9.984;2022-07-06T07:22:06;17.80;19.60
4308;DHT22;2167;53.448;9.984;2022-07-06T07:24:32;17.90;18.70
4308;DHT22;2167;53.448;9.984;2022-07-06T07:26:58;18.00;17.90
4308;DHT22;2167;53.448;9.984;2022-07-06T07:29:23;18.00;17.20
4308;DHT22;2167;53.448;9.984;2022-07-06T07:31:49;18.20;18.70
4308;DHT22;2167;53.448;9.984;2022-07-06T07:34:15;18.20;16.70
4308;DHT22;2167;53.448;9.984;2022-07-06T07:36:41;18.30;16.30
4308;DHT22;2167;53.448;9.984;2022-07-06T07:39:07;18.40;15.00
4308;DHT22;2167;53.448;9.984;2022-07-06T07:41:33;18.40;12.80
4308;DHT22;2167;53.448;9.984;2022-07-06T07:43:58;18.30;11.20
4308;DHT22;2167;53.448;9.984;2022-07-06T07:46:24;18.20;13.40
4308;DHT22;2167;53.448;9.984;2022-07-06T07:48:49;18.10;12.40
4308;DHT22;2167;53.448;9.984;2022-07-06T07:51:15;17.90;11.30
4308;DHT22;2167;53.448;9.984;2022-07-06T07:53:40;17.70;13.10
4308;DHT22;2167;53.448;9.984;2022-07-06T07:56:06;17.70;14.50
4308;DHT22;2167;53.448;9.984;2022-07-06T07:58:32;17.80;14.10
4308;DHT22;2167;53.448;9.984;2022-07-06T08:00:58;17.90;12.90
4308;DHT22;2167;53.448;9.984;2022-07-06T08:03:23;18.10;16.80
4308;DHT22;2167;53.448;9.984;2022-07-06T08:05:49;18.10;13.90
4308;DHT22;2167;53.448;9.984;2022-07-06T08:08:16;18.20;13.10
4308;DHT22;2167;53.448;9.984;2022-07-06T08:10:41;18.20;14.10
4308;DHT22;2167;53.448;9.984;2022-07-06T08:13:07;18.10;13.30
4308;DHT22;2167;53.448;9.984;2022-07-06T08:15:36;18.00;12.70
4308;DHT22;2167;53.448;9.984;2022-07-06T08:18:02;18.00;12.10
4308;DHT22;2167;53.448;9.984;2022-07-06T08:20:28;18.00;12.20
4308;DHT22;2167;53.448;9.984;2022-07-06T08:22:55;18.00;13.20
4308;DHT22;2167;53.448;9.984;2022-07-06T08:25:20;18.00;15.70
4308;DHT22;2167;53.448;9.984;2022-07-06T08:27:46;17.90;13.70
4308;DHT22;2167;53.448;9.984;2022-07-06T08:30:11;17.70;15.80
4308;DHT22;2167;53.448;9.984;2022-07-06T08:32:41;17.50;17.60
4308;DHT22;2167;53.448;9.984;2022-07-06T08:35:08;17.40;18.20
4308;DHT22;2167;53.448;9.984;2022-07-06T08:37:34;17.30;20.00
4308;DHT22;2167;53.448;9.984;2022-07-06T08:39:59;17.30;20.70
4308;DHT22;2167;53.448;9.984;2022-07-06T08:42:30;17.20;25.90
4308;DHT22;2167;53.448;9.984;2022-07-06T08:44:59;16.90;30.00
4308;DHT22;2167;53.448;9.984;2022-07-06T08:47:26;16.50;33.90
4308;DHT22;2167;53.448;9.984;2022-07-06T08:49:53;16.30;35.90
4308;DHT22;2167;53.448;9.984;2022-07-06T08:52:19;16.20;33.30
4308;DHT22;2167;53.448;9.984;2022-07-06T08:54:45;16.20;35.50
4308;DHT22;2167;53.448;9.984;2022-07-06T08:57:11;16.00;36.00
4308;DHT22;2167;53.448;9.984;2022-07-06T08:59:38;16.00;36.30
4308;DHT22;2167;53.448;9.984;2022-07-06T09:02:04;16.10;38.10
4308;DHT22;2167;53.448;9.984;2022-07-06T09:04:31;16.20;41.20
4308;DHT22;2167;53.448;9.984;2022-07-06T09:06:58;16.20;38.70
4308;DHT22;2167;53.448;9.984;2022-07-06T09:09:24;16.10;39.30
4308;DHT22;2167;53.448;9.984;2022-07-06T09:11:50;16.00;41.20
4308;DHT22;2167;53.448;9.984;2022-07-06T09:14:17;16.00;44.10
4308;DHT22;2167;53.448;9.984;2022-07-06T09:16:45;16.00;43.10
4308;DHT22;2167;53.448;9.984;2022-07-06T09:19:12;16.00;45.40
4308;DHT22;2167;53.448;9.984;2022-07-06T09:21:37;16.10;46.60
4308;DHT22;2167;53.448;9.984;2022-07-06T09:24:10;16.20;48.40
4308;DHT22;2167;53.448;9.984;2022-07-06T09:26:36;16.20;47.80
4308;DHT22;2167;53.448;9.984;2022-07-06T09:29:03;16.30;49.30
4308;DHT22;2167;53.448;9.984;2022-07-06T09:31:29;16.60;51.00
4308;DHT22;2167;53.448;9.984;2022-07-06T09:34:00;16.80;51.10
4308;DHT22;2167;53.448;9.984;2022-07-06T09:36:47;17.10;50.40
4308;DHT22;2167;53.448;9.984;2022-07-06T09:39:25;17.50;47.90
4308;DHT22;2167;53.448;9.984;2022-07-06T09:41:59;17.90;38.60
4308;DHT22;2167;53.448;9.984;2022-07-06T09:44:30;18.20;28.50
4308;DHT22;2167;53.448;9.984;2022-07-06T09:46:59;18.30;22.40
4308;DHT22;2167;53.448;9.984;2022-07-06T09:49:27;18.40;20.10
4308;DHT22;2167;53.448;9.984;2022-07-06T09:51:55;18.50;21.20
4308;DHT22;2167;53.448;9.984;2022-07-06T09:54:21;18.70;24.00
4308;DHT22;2167;53.448;9.984;2022-07-06T09:56:48;19.00;20.80
4308;DHT22;2167;53.448;9.984;2022-07-06T09:59:17;19.20;19.40
4308;DHT22;2167;53.448;9.984;2022-07-06T10:01:44;19.50;19.60
4308;DHT22;2167;53.448;9.984;2022-07-06T10:04:13;19.70;15.70
4308;DHT22;2167;53.448;9.984;2022-07-06T10:06:40;19.70;15.00
4308;DHT22;2167;53.448;9.984;2022-07-06T10:09:08;19.80;12.00
4308;DHT22;2167;53.448;9.984;2022-07-06T10:11:49;19.80;11.60
4308;DHT22;2167;53.448;9.984;2022-07-06T10:14:18;20.00;8.80
4308;DHT22;2167;53.448;9.984;2022-07-06T10:16:46;20.10;7.90
4308;DHT22;2167;53.448;9.984;2022-07-06T10:19:14;20.10;9.90
4308;DHT22;2167;53.448;9.984;2022-07-06T10:21:41;20.10;10.00
4308;DHT22;2167;53.448;9.984;2022-07-06T10:24:08;19.90;8.50
4308;DHT22;2167;53.448;9.984;2022-07-06T10:26:34;19.90;8.30
4308;DHT22;2167;53.448;9.984;2022-07-06T10:29:02;20.00;8.70
4308;DHT22;2167;53.448;9.984;2022-07-06T10:31:29;20.20;6.50
4308;DHT22;2167;53.448;9.984;2022-07-06T10:33:57;20.30;1.80
4308;DHT22;2167;53.448;9.984;2022-07-06T10:36:24;20.30;3.50
4308;DHT22;2167;53.448;9.984;2022-07-06T10:38:51;20.30;1.30
4308;DHT22;2167;53.448;9.984;2022-07-06T10:41:17;20.20;1.00
4308;DHT22;2167;53.448;9.984;2022-07-06T10:43:45;19.90;1.00
4308;DHT22;2167;53.448;9.984;2022-07-06T10:46:14;19.50;1.00
4308;DHT22;2167;53.448;9.984;2022-07-06T10:48:42;19.40;2.90
4308;DHT22;2167;53.448;9.984;2022-07-06T10:51:11;19.30;3.80
4308;DHT22;2167;53.448;9.984;2022-07-06T10:53:38;19.20;4.10
4308;DHT22;2167;53.448;9.984;2022-07-06T10:58:50;18.90;4.00
4308;DHT22;2167;53.448;9.984;2022-07-06T11:01:17;18.80;6.70
4308;DHT22;2167;53.448;9.984;2022-07-06T11:06:24;18.40;7.70
4308;DHT22;2167;53.448;9.984;2022-07-06T11:08:59;18.30;8.90
4308;DHT22;2167;53.448;9.984;2022-07-06T11:16:58;18.00;18.80
4308;DHT22;2167;53.448;9.984;2022-07-06T11:19:27;17.80;20.20
4308;DHT22;2167;53.448;9.984;2022-07-06T11:21:55;17.70;21.40
4308;DHT22;2167;53.448;9.984;2022-07-06T11:24:28;17.70;23.40
4308;DHT22;2167;53.448;9.984;2022-07-06T11:26:55;17.70;25.30
4308;DHT22;2167;53.448;9.984;2022-07-06T11:29:22;17.60;22.70
4308;DHT22;2167;53.448;9.984;2022-07-06T11:31:51;17.50;22.90
4308;DHT22;2167;53.448;9.984;2022-07-06T11:34:32;17.50;23.20
4308;DHT22;2167;53.448;9.984;2022-07-06T11:36:59;17.50;24.60
4308;DHT22;2167;53.448;9.984;2022-07-06T11:39:30;17.60;26.10
4308;DHT22;2167;53.448;9.984;2022-07-06T11:41:56;17.70;28.40
4308;DHT22;2167;53.448;9.984;2022-07-06T11:44:22;17.80;29.40
4308;DHT22;2167;53.448;9.984;2022-07-06T11:46:48;18.00;32.40
4308;DHT22;2167;53.448;9.984;2022-07-06T11:49:14;18.30;25.10
4308;DHT22;2167;53.448;9.984;2022-07-06T11:51:42;18.60;23.30
4308;DHT22;2167;53.448;9.984;2022-07-06T11:56:44;19.60;14.80
4308;DHT22;2167;53.448;9.984;2022-07-06T11:59:10;20.00;8.30
4308;DHT22;2167;53.448;9.984;2022-07-06T12:01:36;20.00;3.00
4308;DHT22;2167;53.448;9.984;2022-07-06T12:04:07;20.00;3.00
4308;DHT22;2167;53.448;9.984;2022-07-06T12:06:33;19.90;5.10
4308;DHT22;2167;53.448;9.984;2022-07-06T12:09:00;19.90;3.70
4308;DHT22;2167;53.448;9.984;2022-07-06T12:11:32;19.80;7.10
4308;DHT22;2167;53.448;9.984;2022-07-06T12:14:01;19.70;6.80
4308;DHT22;2167;53.448;9.984;2022-07-06T12:16:32;19.80;11.00
4308;DHT22;2167;53.448;9.984;2022-07-06T12:19:00;19.90;9.40
4308;DHT22;2167;53.448;9.984;2022-07-06T12:21:26;20.20;6.40
4308;DHT22;2167;53.448;9.984;2022-07-06T12:23:53;20.60;6.80
4308;DHT22;2167;53.448;9.984;2022-07-06T12:26:20;21.00;1.00
4308;DHT22;2167;53.448;9.984;2022-07-06T12:29:09;21.50;1.00
4308;DHT22;2167;53.448;9.984;2022-07-06T12:31:37;22.00;1.00
4308;DHT22;2167;53.448;9.984;2022-07-06T12:34:04;22.10;1.00
4308;DHT22;2167;53.448;9.984;2022-07-06T12:36:31;21.90;1.00
4308;DHT22;2167;53.448;9.984;2022-07-06T12:38:57;21.60;1.00
4308;DHT22;2167;53.448;9.984;2022-07-06T12:42:07;21.50;1.00
4308;DHT22;2167;53.448;9.984;2022-07-06T12:44:15;21.50;1.00
4308;DHT22;2167;53.448;9.984;2022-07-06T12:46:41;21.20;1.00
4308;DHT22;2167;53.448;9.984;2022-07-06T12:49:25;21.10;1.00
4308;DHT22;2167;53.448;9.984;2022-07-06T12:54:42;21.50;1.00
4308;DHT22;2167;53.448;9.984;2022-07-06T12:57:19;21.90;1.00
4308;DHT22;2167;53.448;9.984;2022-07-06T13:02:35;22.20;1.00
4308;DHT22;2167;53.448;9.984;2022-07-06T13:05:12;22.30;1.00
4308;DHT22;2167;53.448;9.984;2022-07-06T13:07:43;22.20;1.00
4308;DHT22;2167;53.448;9.984;2022-07-06T13:10:10;21.90;1.00
4308;DHT22;2167;53.448;9.984;2022-07-06T13:12:37;21.60;1.00
4308;DHT22;2167;53.448;9.984;2022-07-06T13:15:05;21.30;1.00
4308;DHT22;2167;53.448;9.984;2022-07-06T13:17:31;21.10;1.00
4308;DHT22;2167;53.448;9.984;2022-07-06T13:19:57;21.00;1.00
4308;DHT22;2167;53.448;9.984;2022-07-06T13:22:23;21.10;1.00
4308;DHT22;2167;53.448;9.984;2022-07-06T13:24:48;21.40;1.00
4308;DHT22;2167;53.448;9.984;2022-07-06T13:27:14;21.50;1.00
4308;DHT22;2167;53.448;9.984;2022-07-06T13:29:40;21.60;1.00
4308;DHT22;2167;53.448;9.984;2022-07-06T13:32:06;21.60;1.00
4308;DHT22;2167;53.448;9.984;2022-07-06T13:34:33;21.70;1.00
4308;DHT22;2167;53.448;9.984;2022-07-06T13:37:01;21.80;1.00
4308;DHT22;2167;53.448;9.984;2022-07-06T13:39:26;21.90;1.00
4308;DHT22;2167;53.448;9.984;2022-07-06T13:41:53;22.10;1.00
4308;DHT22;2167;53.448;9.984;2022-07-06T13:44:19;22.40;1.00
4308;DHT22;2167;53.448;9.984;2022-07-06T13:46:45;22.50;1.00
4308;DHT22;2167;53.448;9.984;2022-07-06T13:49:11;22.50;1.00
4308;DHT22;2167;53.448;9.984;2022-07-06T13:51:36;22.30;1.00
4308;DHT22;2167;53.448;9.984;2022-07-06T13:54:03;22.00;1.00
4308;DHT22;2167;53.448;9.984;2022-07-06T13:56:31;21.70;1.00
4308;DHT22;2167;53.448;9.984;2022-07-06T13:58:57;21.80;1.00
4308;DHT22;2167;53.448;9.984;2022-07-06T14:01:23;21.90;1.00
4308;DHT22;2167;53.448;9.984;2022-07-06T14:03:49;22.10;1.00
4308;DHT22;2167;53.448;9.984;2022-07-06T14:06:15;22.10;1.00
4308;DHT22;2167;53.448;9.984;2022-07-06T14:08:42;22.10;1.00
4308;DHT22;2167;53.448;9.984;2022-07-06T14:11:09;22.20;1.00
4308;DHT22;2167;53.448;9.984;2022-07-06T14:13:35;22.30;1.00
4308;DHT22;2167;53.448;9.984;2022-07-06T14:16:01;22.30;1.00
4308;DHT22;2167;53.448;9.984;2022-07-06T14:18:27;22.20;1.00
4308;DHT22;2167;53.448;9.984;2022-07-06T14:20:53;22.00;1.00
4308;DHT22;2167;53.448;9.984;2022-07-06T14:23:20;22.00;1.00
4308;DHT22;2167;53.448;9.984;2022-07-06T14:25:46;21.80;1.00
4308;DHT22;2167;53.448;9.984;2022-07-06T14:28:13;21.60;1.00
4308;DHT22;2167;53.448;9.984;2022-07-06T14:30:40;21.70;1.00
4308;DHT22;2167;53.448;9.984;2022-07-06T14:33:07;22.10;1.00
4308;DHT22;2167;53.448;9.984;2022-07-06T14:35:44;22.20;1.00
4308;DHT22;2167;53.448;9.984;2022-07-06T14:38:13;22.40;1.00
4308;DHT22;2167;53.448;9.984;2022-07-06T14:40:39;22.40;1.00
4308;DHT22;2167;53.448;9.984;2022-07-06T14:43:04;22.30;1.00
4308;DHT22;2167;53.448;9.984;2022-07-06T14:45:30;22.00;1.00
4308;DHT22;2167;53.448;9.984;2022-07-06T14:47:56;21.80;1.00
4308;DHT22;2167;53.448;9.984;2022-07-06T14:50:22;21.70;1.00
4308;DHT22;2167;53.448;9.984;2022-07-06T14:52:52;21.60;1.00
4308;DHT22;2167;53.448;9.984;2022-07-06T14:55:18;21.60;1.00
4308;DHT22;2167;53.448;9.984;2022-07-06T14:57:43;21.50;1.00
4308;DHT22;2167;53.448;9.984;2022-07-06T15:00:10;21.60;1.00
4308;DHT22;2167;53.448;9.984;2022-07-06T15:02:35;21.70;1.00
4308;DHT22;2167;53.448;9.984;2022-07-06T15:05:01;22.00;1.00
4308;DHT22;2167;53.448;9.984;2022-07-06T15:07:27;22.40;1.00
4308;DHT22;2167;53.448;9.984;2022-07-06T15:09:53;22.60;1.00
4308;DHT22;2167;53.448;9.984;2022-07-06T15:12:19;22.70;1.00
4308;DHT22;2167;53.448;9.984;2022-07-06T15:14:44;22.90;1.00
4308;DHT22;2167;53.448;9.984;2022-07-06T15:17:10;22.90;1.00
4308;DHT22;2167;53.448;9.984;2022-07-06T15:19:36;22.90;1.00
4308;DHT22;2167;53.448;9.984;2022-07-06T15:22:01;22.70;1.00
4308;DHT22;2167;53.448;9.984;2022-07-06T15:24:27;22.50;1.00
4308;DHT22;2167;53.448;9.984;2022-07-06T15:26:52;22.40;1.00
4308;DHT22;2167;53.448;9.984;2022-07-06T15:29:18;22.30;1.00
4308;DHT22;2167;53.448;9.984;2022-07-06T15:31:44;22.20;1.00
4308;DHT22;2167;53.448;9.984;2022-07-06T15:34:10;21.90;1.00
4308;DHT22;2167;53.448;9.984;2022-07-06T15:36:36;21.60;1.00
4308;DHT22;2167;53.448;9.984;2022-07-06T15:39:02;21.50;1.00
4308;DHT22;2167;53.448;9.984;2022-07-06T15:41:28;21.40;1.00
4308;DHT22;2167;53.448;9.984;2022-07-06T15:43:54;21.30;1.00
4308;DHT22;2167;53.448;9.984;2022-07-06T15:46:19;21.10;1.00
4308;DHT22;2167;53.448;9.984;2022-07-06T15:48:45;21.10;1.00
4308;DHT22;2167;53.448;9.984;2022-07-06T15:51:10;21.20;1.00
4308;DHT22;2167;53.448;9.984;2022-07-06T15:53:36;21.50;1.00
4308;DHT22;2167;53.448;9.984;2022-07-06T15:56:02;21.70;1.00
4308;DHT22;2167;53.448;9.984;2022-07-06T15:58:28;21.80;1.00
4308;DHT22;2167;53.448;9.984;2022-07-06T16:00:54;21.80;1.00
4308;DHT22;2167;53.448;9.984;2022-07-06T16:03:19;21.80;1.00
4308;DHT22;2167;53.448;9.984;2022-07-06T16:05:45;21.90;1.00
4308;DHT22;2167;53.448;9.984;2022-07-06T16:08:12;21.90;1.00
4308;DHT22;2167;53.448;9.984;2022-07-06T16:10:38;22.00;1.00
4308;DHT22;2167;53.448;9.984;2022-07-06T16:13:03;22.20;1.00
4308;DHT22;2167;53.448;9.984;2022-07-06T16:15:29;22.20;1.00
4308;DHT22;2167;53.448;9.984;2022-07-06T16:17:55;22.50;1.00
4308;DHT22;2167;53.448;9.984;2022-07-06T16:20:21;22.70;1.00
4308;DHT22;2167;53.448;9.984;2022-07-06T16:22:46;23.00;1.00